Hot Springs National Park, AR

8:53 PM CDT on May 26, 2015 (GMT -0500)
Hot Springs Convention Center | | Change Station
CLOSE
Current Station
Personal Weather Station
Location: Hot Springs National Park, AR
Elevation: 623 ft
Nearby Weather Stations

Elev 623 ft 34.51 °N, 93.05 °W | Updated 14 minutes ago

Clear
Clear
72.5 °F
Feels Like 71 °F
N
2.0
Wind Variable Wind from ESE
Gusts 5.0 mph

Today
High -- | Low -- °F
--% Chance of Precip.
Yesterday
High -- | Low -- °F
Precip. -- in
6:03 AM 8:15 PM
Waxing Gibbous, 63% visible
Pressure 30.01 in
Visibility 10.0 miles
Clouds Clear
Heat Index 71 °F
Dew Point 69 °F
Humidity 87%
Rainfall 0.08 in
Snow Depth Not available.
UV 0 out of 12
Pollen 2.10 out of 12
Air Quality Not available.
Flu Activity No Activity
METAR KHOT 270053Z AUTO 21006KT 10SM CLR 24/19 A3003 RMK AO2 SLP163 T02390194

More Conditions Fewer Conditions

Pressure 30.01 in
Visibility 10.0 miles
Clouds Clear
Heat Index 71 °F
Dew Point 69 °F
Humidity 87%
Rainfall 0.08 in
Snow Depth Not available.
UV 0 out of 12
Pollen 2.10 out of 12
Air Quality Not available.
Flu Activity No Activity
METAR KHOT 270053Z AUTO 21006KT 10SM CLR 24/19 A3003 RMK AO2 SLP163 T02390194

More Conditions Fewer Conditions

10-Day Weather Forecast

Almanac

Astronomy

May. 26, 2015 Rise Set
Actual Time
Civil Twilight
Nautical Twilight
Astronomical Twilight
Moon
Length of Visible Light
Length of Day
Tomorrow will be .
, % of the Moon is Illuminated

Today's Extremes

State Highs State Lows

Community

WunderPhotos

Upload Photos

1,824,549 photos uploaded!

WunderBlogs® & News

Nearby

Air Quality

  Air Quality AQ Index Pollutant
Not available.

Snow Depth

Station Depth Elevation

Earthquake Activity

City Distance Mag. Time & Date
Minimum magnitude displayed is 2.5.

Coastal Water Temperatures

Place Temperature

Stations

Nearby Weather Stations

Station Location Temp. Windchill Dew Point Humidity Wind Precip. Elev Updated Type